createdAt,value
2022-08-17T00:02:25.165Z,5.67
2022-08-17T00:04:54.763Z,6.27
2022-08-17T00:07:22.361Z,6.57
2022-08-17T00:09:49.410Z,6.70
2022-08-17T00:12:43.565Z,5.97
2022-08-17T00:15:06.174Z,5.50
2022-08-17T00:17:35.829Z,5.33
2022-08-17T00:20:04.820Z,5.70
2022-08-17T00:22:36.463Z,6.83
2022-08-17T00:25:16.961Z,6.00
2022-08-17T00:27:44.003Z,6.17
2022-08-17T00:30:12.635Z,5.30
2022-08-17T00:33:11.902Z,5.57
2022-08-17T00:35:33.869Z,5.50
2022-08-17T00:38:00.825Z,5.00
2022-08-17T00:40:40.739Z,5.97
2022-08-17T00:43:19.496Z,5.77
2022-08-17T00:45:47.447Z,5.60
2022-08-17T00:48:29.661Z,6.10
2022-08-17T00:51:09.383Z,5.97
2022-08-17T00:53:45.965Z,5.53
2022-08-17T00:56:21.115Z,6.50
2022-08-17T00:58:52.291Z,6.43
2022-08-17T01:01:22.001Z,5.90
2022-08-17T01:03:52.548Z,5.87
2022-08-17T01:06:24.601Z,6.10
2022-08-17T01:08:57.283Z,6.20
2022-08-17T01:11:25.645Z,6.10
2022-08-17T01:13:52.813Z,6.67
2022-08-17T01:16:26.535Z,7.13
2022-08-17T01:19:02.820Z,5.53
2022-08-17T01:21:34.363Z,7.57
2022-08-17T01:24:02.401Z,6.27
2022-08-17T01:26:32.935Z,6.70
2022-08-17T01:29:02.346Z,5.90
2022-08-17T01:31:41.535Z,5.77
2022-08-17T01:34:11.159Z,5.60
2022-08-17T01:36:41.013Z,6.13
2022-08-17T01:39:27.028Z,5.13
2022-08-17T01:41:58.711Z,5.30
2022-08-17T01:44:26.838Z,6.10
2022-08-17T01:46:55.056Z,5.27
2022-08-17T01:49:23.221Z,5.87
2022-08-17T01:51:50.444Z,6.63
2022-08-17T01:54:19.616Z,5.10
2022-08-17T01:56:49.612Z,5.67
2022-08-17T01:59:18.933Z,6.37
2022-08-17T02:01:47.050Z,7.03
2022-08-17T02:04:14.913Z,5.50
2022-08-17T02:06:54.125Z,6.37
2022-08-17T02:09:29.957Z,5.70
2022-08-17T02:11:59.731Z,7.47
2022-08-17T02:14:27.582Z,6.40
2022-08-17T02:16:54.715Z,7.17
2022-08-17T02:19:22.284Z,6.30
2022-08-17T02:21:52.946Z,5.97
2022-08-17T02:25:00.094Z,5.70
2022-08-17T02:27:15.081Z,6.20
2022-08-17T02:29:42.128Z,7.57
2022-08-17T02:32:27.229Z,6.70
2022-08-17T02:34:59.635Z,7.03
2022-08-17T02:37:28.441Z,8.10
2022-08-17T02:39:57.145Z,8.10
2022-08-17T02:42:36.473Z,7.40
2022-08-17T02:45:08.963Z,6.50
2022-08-17T02:47:36.692Z,6.60
2022-08-17T02:50:06.242Z,6.17
2022-08-17T02:52:43.079Z,7.93
2022-08-17T02:55:20.563Z,5.90
2022-08-17T02:57:48.322Z,6.87
2022-08-17T03:00:29.608Z,6.70
2022-08-17T03:02:57.545Z,5.87
2022-08-17T03:05:28.062Z,6.97
2022-08-17T03:07:55.127Z,7.20
2022-08-17T03:10:24.620Z,6.20
2022-08-17T03:12:52.973Z,8.00
2022-08-17T03:15:31.467Z,6.73
2022-08-17T03:17:59.664Z,7.37
2022-08-17T03:20:29.031Z,7.27
2022-08-17T03:23:02.781Z,6.90
2022-08-17T03:25:44.003Z,8.17
2022-08-17T03:28:14.468Z,6.40
2022-08-17T03:30:41.811Z,7.10
2022-08-17T03:33:12.606Z,7.20
2022-08-17T03:35:41.038Z,7.03
2022-08-17T03:38:10.708Z,7.53
2022-08-17T03:40:56.568Z,8.03
2022-08-17T03:43:30.436Z,6.17
2022-08-17T03:46:27.963Z,7.60
2022-08-17T03:49:23.687Z,6.50
2022-08-17T03:52:09.085Z,6.40
2022-08-17T03:54:54.458Z,5.77
2022-08-17T03:57:21.620Z,6.40
2022-08-17T03:59:49.502Z,7.07
2022-08-17T04:02:24.981Z,5.90
2022-08-17T04:04:52.618Z,6.87
2022-08-17T04:07:25.996Z,6.60
2022-08-17T04:09:53.222Z,6.53
2022-08-17T04:12:23.166Z,6.33
2022-08-17T04:14:53.347Z,7.57
2022-08-17T04:17:27.993Z,7.03
2022-08-17T04:19:55.844Z,7.53
2022-08-17T04:22:33.343Z,6.57
2022-08-17T04:25:17.227Z,7.23
2022-08-17T04:27:44.421Z,8.00
2022-08-17T04:30:12.387Z,6.83
2022-08-17T04:33:08.717Z,6.23
2022-08-17T04:35:43.444Z,5.83
2022-08-17T04:38:15.161Z,6.93
2022-08-17T04:41:01.713Z,8.30
2022-08-17T04:43:31.015Z,7.30
2022-08-17T04:46:10.457Z,7.60
2022-08-17T04:48:46.841Z,7.57
2022-08-17T04:51:20.928Z,7.20
2022-08-17T04:53:54.910Z,6.70
2022-08-17T04:56:25.816Z,8.30
2022-08-17T04:58:56.978Z,7.50
2022-08-17T05:01:28.057Z,6.97
2022-08-17T05:04:01.891Z,7.70
2022-08-17T05:06:49.820Z,6.83
2022-08-17T05:09:17.862Z,7.33
2022-08-17T05:11:46.610Z,8.47
2022-08-17T05:14:14.158Z,7.00
2022-08-17T05:16:41.348Z,7.57
2022-08-17T05:19:08.355Z,8.50
2022-08-17T05:21:35.363Z,7.17
2022-08-17T05:24:03.706Z,7.73
2022-08-17T05:26:36.691Z,7.83
2022-08-17T05:29:05.273Z,7.70
2022-08-17T05:31:32.261Z,7.77
2022-08-17T05:33:59.650Z,8.40
2022-08-17T05:36:38.026Z,7.13
2022-08-17T05:39:15.942Z,6.60
2022-08-17T05:41:46.299Z,6.10
2022-08-17T05:44:13.782Z,6.20
2022-08-17T05:46:43.954Z,6.83
2022-08-17T05:49:12.665Z,6.53
2022-08-17T05:52:24.850Z,6.90
2022-08-17T05:55:06.602Z,6.70
2022-08-17T05:57:56.081Z,6.80
2022-08-17T06:00:33.256Z,5.77
2022-08-17T06:03:19.805Z,6.10
2022-08-17T06:06:31.212Z,5.47
2022-08-17T06:09:33.872Z,6.10
2022-08-17T06:12:40.975Z,5.87
2022-08-17T06:15:35.692Z,5.97
2022-08-17T06:18:06.104Z,5.73
2022-08-17T06:20:51.599Z,5.30
2022-08-17T06:23:48.201Z,6.43
2022-08-17T06:26:21.492Z,6.03
2022-08-17T06:29:19.794Z,6.53
2022-08-17T06:31:47.266Z,6.13
2022-08-17T06:34:15.573Z,6.67
2022-08-17T06:37:10.242Z,7.67
2022-08-17T06:39:58.555Z,5.33
2022-08-17T06:43:02.111Z,5.90
2022-08-17T06:46:02.414Z,5.13
2022-08-17T06:48:38.238Z,5.60
2022-08-17T06:51:18.395Z,4.93
2022-08-17T06:54:05.403Z,5.07
2022-08-17T06:56:52.970Z,5.13
2022-08-17T06:59:34.824Z,5.77
2022-08-17T07:02:51.253Z,5.20
2022-08-17T07:05:23.382Z,5.33
2022-08-17T07:08:04.919Z,5.80
2022-08-17T07:10:43.059Z,5.00
2022-08-17T07:13:51.209Z,4.37
2022-08-17T07:16:32.427Z,4.33
2022-08-17T07:18:59.943Z,4.03
2022-08-17T07:21:47.608Z,4.53
2022-08-17T07:24:58.243Z,4.67
2022-08-17T07:27:30.982Z,4.53
2022-08-17T07:30:11.005Z,4.00
2022-08-17T07:32:59.082Z,4.10
2022-08-17T07:35:31.075Z,3.60
2022-08-17T07:38:24.691Z,3.50
2022-08-17T07:41:02.109Z,3.33
2022-08-17T07:43:41.058Z,4.10
2022-08-17T07:46:50.494Z,3.60
2022-08-17T07:49:34.300Z,4.33
2022-08-17T07:52:48.276Z,4.00
2022-08-17T07:55:42.919Z,3.27
2022-08-17T07:58:17.419Z,3.40
2022-08-17T08:00:45.538Z,4.20
2022-08-17T08:03:31.862Z,3.80
2022-08-17T08:06:02.022Z,3.50
2022-08-17T08:08:42.337Z,4.03
2022-08-17T08:11:12.540Z,3.80
2022-08-17T08:13:43.757Z,4.37
2022-08-17T08:16:17.149Z,3.93
2022-08-17T08:18:54.498Z,3.73
2022-08-17T08:21:36.906Z,4.10
2022-08-17T08:24:18.782Z,4.20
2022-08-17T08:26:57.047Z,4.47
2022-08-17T08:29:40.885Z,4.43
2022-08-17T08:32:31.890Z,4.07
2022-08-17T08:35:26.717Z,4.67
2022-08-17T08:38:25.490Z,4.17
2022-08-17T08:41:16.507Z,4.70
2022-08-17T08:45:01.248Z,3.60
2022-08-17T08:47:48.464Z,4.80
2022-08-17T08:50:40.287Z,3.90
2022-08-17T08:53:52.014Z,4.67
2022-08-17T08:57:11.504Z,4.70
2022-08-17T09:00:07.313Z,4.23
2022-08-17T09:03:20.699Z,4.13
2022-08-17T09:06:38.686Z,4.10
2022-08-17T09:09:40.764Z,5.33
2022-08-17T09:12:57.576Z,4.77
2022-08-17T09:15:35.169Z,3.90
2022-08-17T09:19:02.431Z,4.80
2022-08-17T09:21:49.939Z,4.97
2022-08-17T09:24:36.501Z,4.77
2022-08-17T09:27:21.430Z,3.87
2022-08-17T09:29:55.020Z,4.43
2022-08-17T09:32:33.123Z,4.20
2022-08-17T09:35:19.919Z,4.07
2022-08-17T09:38:18.174Z,3.80
2022-08-17T09:41:30.309Z,3.60
2022-08-17T09:44:24.090Z,4.57
2022-08-17T09:47:12.657Z,3.97
2022-08-17T09:49:50.794Z,4.13
2022-08-17T09:52:23.454Z,3.50
2022-08-17T09:54:52.866Z,3.90
2022-08-17T09:58:09.256Z,3.80
2022-08-17T10:00:41.450Z,4.40
2022-08-17T10:03:21.048Z,4.17
2022-08-17T10:06:09.577Z,4.50
2022-08-17T10:09:07.326Z,4.83
2022-08-17T10:12:15.676Z,4.23
2022-08-17T10:15:08.209Z,4.47
2022-08-17T10:18:08.743Z,4.00
2022-08-17T10:25:48.636Z,3.67
2022-08-17T10:28:25.835Z,4.13
2022-08-17T10:34:14.396Z,4.10
2022-08-17T10:36:59.146Z,3.60
2022-08-17T10:39:57.316Z,4.07
2022-08-17T10:42:37.868Z,4.40
2022-08-17T10:45:23.435Z,4.20
2022-08-17T10:48:06.228Z,3.73
2022-08-17T10:50:57.642Z,4.10
2022-08-17T10:53:33.434Z,3.90
2022-08-17T10:56:12.483Z,3.80
2022-08-17T10:58:58.186Z,3.53
2022-08-17T11:01:34.355Z,3.57
2022-08-17T11:04:21.227Z,3.60
2022-08-17T11:07:02.002Z,3.30
2022-08-17T11:09:36.045Z,3.67
2022-08-17T11:12:57.011Z,3.30
2022-08-17T11:15:47.377Z,3.63
2022-08-17T11:18:35.746Z,3.47
2022-08-17T11:21:50.317Z,3.50
2022-08-17T11:24:38.157Z,3.70
2022-08-17T11:27:14.103Z,3.20
2022-08-17T11:30:01.892Z,4.43
2022-08-17T11:32:54.468Z,3.20
2022-08-17T11:35:26.873Z,4.47
2022-08-17T11:38:36.100Z,5.10
2022-08-17T11:41:31.684Z,3.50
2022-08-17T11:44:37.785Z,3.80
2022-08-17T11:48:25.928Z,3.40
2022-08-17T11:51:42.157Z,3.80
2022-08-17T11:54:32.300Z,4.30
2022-08-17T11:57:27.685Z,3.77
2022-08-17T12:00:26.134Z,4.20
2022-08-17T12:03:26.617Z,4.40
2022-08-17T12:06:17.594Z,4.37
2022-08-17T12:08:55.381Z,3.00
2022-08-17T12:12:10.988Z,3.50
2022-08-17T12:15:09.101Z,3.60
2022-08-17T12:17:40.434Z,3.50
2022-08-17T12:20:24.084Z,3.23
2022-08-17T12:23:01.192Z,4.33
2022-08-17T12:25:39.953Z,3.73
2022-08-17T12:28:29.801Z,3.63
2022-08-17T12:31:03.946Z,4.13
2022-08-17T12:33:31.581Z,3.17
2022-08-17T12:36:06.308Z,3.30
2022-08-17T12:38:36.540Z,3.20
2022-08-17T12:41:28.274Z,3.63
2022-08-17T12:44:13.368Z,3.37
2022-08-17T12:46:55.410Z,3.63
2022-08-17T12:49:42.431Z,3.43
2022-08-17T12:52:26.650Z,3.17
2022-08-17T12:55:07.426Z,3.13
2022-08-17T12:57:48.696Z,3.07
2022-08-17T13:00:26.032Z,2.90
2022-08-17T13:03:02.374Z,3.23
2022-08-17T13:06:09.458Z,3.60
2022-08-17T13:08:43.330Z,3.10
2022-08-17T13:11:18.576Z,3.10
2022-08-17T13:13:56.396Z,3.40
2022-08-17T13:16:30.941Z,2.90
2022-08-17T13:19:15.003Z,3.50
2022-08-17T13:21:56.280Z,3.37
2022-08-17T13:24:29.165Z,3.27
2022-08-17T13:27:10.375Z,2.70
2022-08-17T13:29:39.841Z,3.10
2022-08-17T13:32:13.566Z,2.87
2022-08-17T13:35:12.559Z,3.20
2022-08-17T13:38:11.727Z,3.87
2022-08-17T13:40:50.664Z,3.47
2022-08-17T13:43:44.558Z,3.43
2022-08-17T13:46:19.679Z,3.90
2022-08-17T13:49:01.117Z,3.20
2022-08-17T13:51:33.917Z,3.10
2022-08-17T13:54:04.698Z,2.90
2022-08-17T13:56:49.970Z,2.53
2022-08-17T13:59:53.552Z,3.03
2022-08-17T14:02:20.754Z,2.90
2022-08-17T14:04:48.811Z,2.87
2022-08-17T14:07:16.085Z,2.30
2022-08-17T14:10:11.004Z,4.00
2022-08-17T14:12:41.367Z,2.20
2022-08-17T14:15:10.626Z,3.03
2022-08-17T14:17:39.051Z,2.40
2022-08-17T14:20:10.974Z,2.37
2022-08-17T14:22:41.120Z,2.90
2022-08-17T14:25:10.909Z,2.63
2022-08-17T14:27:43.599Z,2.20
2022-08-17T14:30:23.448Z,2.60
2022-08-17T14:32:52.208Z,3.13
2022-08-17T14:35:22.959Z,2.73
2022-08-17T14:37:51.978Z,2.60
2022-08-17T14:40:24.546Z,2.13
2022-08-17T14:42:53.462Z,2.90
2022-08-17T14:45:31.722Z,3.00
2022-08-17T14:48:07.562Z,2.27
2022-08-17T14:50:38.377Z,2.63
2022-08-17T14:53:12.616Z,2.53
2022-08-17T14:55:40.870Z,2.80
2022-08-17T14:58:09.149Z,2.80
2022-08-17T15:00:38.472Z,3.27
2022-08-17T15:03:05.716Z,2.70
2022-08-17T15:05:36.746Z,2.80
2022-08-17T15:08:05.776Z,2.10
2022-08-17T15:10:33.862Z,3.03
2022-08-17T15:13:01.180Z,3.00
2022-08-17T15:15:28.872Z,4.23
2022-08-17T15:17:56.315Z,2.53
2022-08-17T15:20:29.622Z,2.50
2022-08-17T15:22:58.885Z,3.97
2022-08-17T15:25:31.833Z,2.90
2022-08-17T15:28:00.387Z,3.10
2022-08-17T15:30:29.127Z,2.70
2022-08-17T15:32:58.599Z,2.63
2022-08-17T15:35:29.803Z,3.30
2022-08-17T15:38:10.794Z,3.90
2022-08-17T15:40:42.135Z,3.00
2022-08-17T15:43:13.941Z,3.33
2022-08-17T15:45:40.994Z,3.20
2022-08-17T15:48:08.910Z,3.10
2022-08-17T15:50:37.284Z,3.50
2022-08-17T15:53:04.881Z,2.93
2022-08-17T15:55:33.653Z,3.60
2022-08-17T15:58:01.241Z,4.17
2022-08-17T16:00:29.475Z,3.30
2022-08-17T16:03:45.755Z,3.57
2022-08-17T16:05:47.735Z,3.77
2022-08-17T16:08:20.207Z,5.40
2022-08-17T16:10:50.247Z,5.93
2022-08-17T16:13:19.136Z,5.30
2022-08-17T16:15:56.817Z,5.30
2022-08-17T16:18:30.815Z,4.30
2022-08-17T16:21:25.137Z,3.70
2022-08-17T16:23:56.176Z,8.23
2022-08-17T16:26:23.331Z,6.47
2022-08-17T16:28:51.301Z,4.60
2022-08-17T16:31:18.888Z,4.33
2022-08-17T16:34:15.573Z,4.97
2022-08-17T16:36:35.519Z,4.10
2022-08-17T16:39:02.500Z,4.30
2022-08-17T16:41:45.105Z,5.00
2022-08-17T16:44:18.694Z,3.60
2022-08-17T16:46:47.426Z,3.57
2022-08-17T16:49:36.039Z,4.67
2022-08-17T16:52:05.999Z,3.77
2022-08-17T16:54:33.471Z,4.63
2022-08-17T16:57:00.427Z,4.07
2022-08-17T16:59:38.773Z,5.00
2022-08-17T17:02:11.021Z,3.60
2022-08-17T17:04:59.359Z,3.60
2022-08-17T17:07:44.382Z,5.20
2022-08-17T17:10:19.972Z,4.20
2022-08-17T17:13:03.236Z,4.20
2022-08-17T17:16:24.051Z,3.83
2022-08-17T17:19:12.334Z,3.70
2022-08-17T17:21:47.330Z,4.50
2022-08-17T17:24:38.978Z,3.60
2022-08-17T17:28:00.600Z,4.70
2022-08-17T17:30:57.038Z,4.37
2022-08-17T17:33:40.801Z,4.40
2022-08-17T17:36:26.588Z,4.00
2022-08-17T17:39:08.503Z,3.90
2022-08-17T17:41:51.671Z,3.80
2022-08-17T17:44:28.790Z,4.60
2022-08-17T17:47:00.264Z,3.70
2022-08-17T17:49:33.700Z,4.27
2022-08-17T17:52:22.786Z,3.70
2022-08-17T17:55:19.039Z,3.57
2022-08-17T17:58:17.835Z,3.73
2022-08-17T18:00:57.891Z,4.50
2022-08-17T18:04:01.619Z,4.23
2022-08-17T18:07:11.106Z,3.20
2022-08-17T18:10:05.627Z,5.00
2022-08-17T18:13:03.642Z,4.00
2022-08-17T18:15:42.144Z,3.97
2022-08-17T18:18:11.778Z,4.30
2022-08-17T18:20:46.573Z,3.57
2022-08-17T18:23:27.077Z,4.70
2022-08-17T18:25:58.709Z,4.20
2022-08-17T18:28:52.863Z,4.03
2022-08-17T18:31:21.883Z,3.67
2022-08-17T18:33:52.415Z,4.20
2022-08-17T18:36:45.893Z,4.13
2022-08-17T18:39:23.529Z,4.67
2022-08-17T18:41:57.946Z,4.80
2022-08-17T18:44:35.505Z,5.00
2022-08-17T18:47:15.077Z,5.00
2022-08-17T18:50:20.936Z,5.10
2022-08-17T18:52:48.641Z,4.63
2022-08-17T18:55:22.132Z,5.27
2022-08-17T18:58:15.139Z,4.50
2022-08-17T19:00:46.218Z,5.57
2022-08-17T19:03:25.090Z,4.33
2022-08-17T19:06:34.396Z,4.40
2022-08-17T19:09:01.785Z,3.93
2022-08-17T19:11:36.278Z,5.40
2022-08-17T19:14:08.291Z,5.27
2022-08-17T19:16:53.762Z,4.23
2022-08-17T19:19:33.013Z,4.53
2022-08-17T19:22:28.660Z,5.07
2022-08-17T19:25:16.018Z,4.63
2022-08-17T19:27:57.504Z,4.23
2022-08-17T19:30:25.797Z,4.57
2022-08-17T19:32:53.313Z,5.50
2022-08-17T19:35:22.142Z,9.60
2022-08-17T19:38:06.147Z,7.77
2022-08-17T19:41:12.155Z,10.20
2022-08-17T19:43:42.251Z,7.10
2022-08-17T19:46:18.512Z,5.27
2022-08-17T19:49:12.024Z,5.90
2022-08-17T19:51:43.058Z,6.57
2022-08-17T19:54:56.076Z,4.80
2022-08-17T19:57:47.746Z,6.10
2022-08-17T20:00:17.430Z,6.00
2022-08-17T20:03:08.629Z,6.07
2022-08-17T20:06:11.553Z,5.77
2022-08-17T20:08:49.415Z,4.70
2022-08-17T20:11:21.891Z,5.97
2022-08-17T20:14:10.658Z,6.40
2022-08-17T20:16:38.090Z,5.03
2022-08-17T20:19:10.844Z,5.10
2022-08-17T20:21:48.670Z,5.90
2022-08-17T20:24:22.951Z,4.90
2022-08-17T20:26:59.333Z,6.10
2022-08-17T20:29:40.414Z,4.73
2022-08-17T20:32:20.855Z,5.90
2022-08-17T20:34:48.625Z,5.87
2022-08-17T20:37:15.912Z,6.67
2022-08-17T20:40:09.302Z,6.77
2022-08-17T20:42:37.512Z,7.43
2022-08-17T20:45:26.449Z,5.77
2022-08-17T20:48:27.262Z,6.83
2022-08-17T20:50:53.024Z,7.10
2022-08-17T20:53:57.997Z,5.80
2022-08-17T20:56:43.474Z,5.23
2022-08-17T20:59:25.876Z,6.10
2022-08-17T21:02:18.689Z,6.23
2022-08-17T21:04:47.266Z,6.30
2022-08-17T21:07:42.932Z,5.57
2022-08-17T21:10:26.269Z,5.67
2022-08-17T21:13:13.388Z,6.40
2022-08-17T21:15:53.356Z,5.70
2022-08-17T21:18:38.955Z,5.97
2022-08-17T21:21:21.450Z,6.30
2022-08-17T21:24:10.168Z,6.43
2022-08-17T21:26:58.321Z,4.70
2022-08-17T21:29:31.488Z,4.90
2022-08-17T21:32:03.128Z,5.63
2022-08-17T21:34:43.254Z,4.60
2022-08-17T21:37:19.844Z,5.30
2022-08-17T21:40:14.909Z,5.73
2022-08-17T21:42:55.515Z,6.03
2022-08-17T21:45:28.027Z,6.30
2022-08-17T21:48:14.999Z,5.97
2022-08-17T21:50:45.164Z,6.33
2022-08-17T21:53:23.792Z,5.57
2022-08-17T21:55:53.436Z,6.40
2022-08-17T21:58:32.812Z,5.23
2022-08-17T22:01:26.641Z,6.00
2022-08-17T22:04:11.495Z,5.40
2022-08-17T22:06:41.722Z,5.60
2022-08-17T22:09:22.455Z,5.30
2022-08-17T22:12:03.662Z,5.87
2022-08-17T22:14:53.471Z,5.47
2022-08-17T22:17:25.478Z,6.17
2022-08-17T22:19:57.951Z,7.17
2022-08-17T22:22:29.437Z,6.60
2022-08-17T22:25:07.684Z,6.50
2022-08-17T22:27:45.704Z,6.13
2022-08-17T22:30:42.496Z,6.73
2022-08-17T22:33:41.900Z,5.60
2022-08-17T22:36:31.063Z,6.47
2022-08-17T22:39:40.376Z,5.00
2022-08-17T22:42:14.431Z,6.10
2022-08-17T22:44:51.098Z,4.77
2022-08-17T22:47:18.914Z,3.67
2022-08-17T22:49:53.458Z,5.57
2022-08-17T22:53:01.623Z,5.50
2022-08-17T22:55:50.570Z,5.40
2022-08-17T22:58:42.937Z,5.60
2022-08-17T23:01:33.210Z,5.87
2022-08-17T23:04:11.591Z,6.37
2022-08-17T23:06:43.726Z,6.10
2022-08-17T23:09:10.721Z,6.63
2022-08-17T23:11:51.232Z,6.10
2022-08-17T23:14:22.413Z,6.57
2022-08-17T23:16:53.033Z,5.60
2022-08-17T23:19:21.698Z,6.77
2022-08-17T23:21:50.443Z,6.17
2022-08-17T23:24:25.444Z,5.90
2022-08-17T23:26:53.943Z,6.93
2022-08-17T23:29:21.537Z,6.93
2022-08-17T23:31:50.449Z,6.73
2022-08-17T23:34:18.575Z,7.83
2022-08-17T23:36:50.672Z,7.93
2022-08-17T23:39:24.641Z,7.20
2022-08-17T23:41:59.349Z,8.17
2022-08-17T23:44:28.715Z,6.80
2022-08-17T23:46:56.420Z,7.67
2022-08-17T23:49:25.017Z,7.73
2022-08-17T23:51:55.071Z,8.13
2022-08-17T23:54:33.598Z,10.00
2022-08-17T23:57:02.227Z,8.87
2022-08-17T23:59:29.675Z,8.90
